Time;durP1;ratioP1;P1;durP2;ratioP2;P2;SDS_P1;SDS_P2;PMS_P1;PMS_P2;Temp;Humidity;BMP_temperature;BMP_pressure;BME280_temperature;BME280_humidity;BME280_pressure;Samples;Min_cycle;Max_cycle;Signal;HPM_P1;HPM_P2
2023/05/24 00:01:26;;;;;;;10.50;2.97;;;;;;;4.74;82.02;102219.88;5026998;28;20260;-87
2023/05/24 00:03:52;;;;;;;10.48;3.13;;;;;;;4.67;81.69;102217.69;5045698;28;20385;-87
2023/05/24 00:06:17;;;;;;;;;;;;;;;4.62;82.21;102219.88;5032512;28;20497;-86
2023/05/24 00:08:43;;;;;;;11.23;2.88;;;;;;;4.62;81.98;102214.56;5029600;28;19928;-86
2023/05/24 00:11:10;;;;;;;8.57;3.00;;;;;;;4.57;82.16;102213.22;5035332;28;20028;-88
2023/05/24 00:13:36;;;;;;;10.63;2.40;;;;;;;4.56;81.76;102209.72;5027857;28;20465;-87
2023/05/24 00:16:01;;;;;;;8.02;2.95;;;;;;;4.48;83.09;102206.81;5041887;28;20045;-86
2023/05/24 00:18:26;;;;;;;10.57;3.10;;;;;;;4.41;83.33;102209.13;5034453;28;20392;-88
2023/05/24 00:20:52;;;;;;;11.07;2.73;;;;;;;4.39;82.88;102203.94;5035519;28;20304;-88
2023/05/24 00:23:17;;;;;;;11.75;3.35;;;;;;;4.38;83.60;102198.72;5045852;28;20679;-87
2023/05/24 00:25:43;;;;;;;8.90;2.50;;;;;;;4.40;83.32;102200.31;5040339;28;20026;-86
2023/05/24 00:28:10;;;;;;;9.05;3.17;;;;;;;4.40;84.08;102204.78;5028600;28;20308;-87
2023/05/24 00:30:36;;;;;;;9.50;2.95;;;;;;;4.35;83.49;102197.16;5036481;28;20037;-86
2023/05/24 00:33:04;;;;;;;6.68;2.53;;;;;;;4.29;83.97;102194.97;5060805;28;20063;-87
2023/05/24 00:35:29;;;;;;;7.53;2.65;;;;;;;4.23;83.20;102190.13;5053953;28;20077;-87
2023/05/24 00:37:55;;;;;;;10.83;2.63;;;;;;;4.17;83.63;102194.09;5048622;28;20052;-86
2023/05/24 00:40:21;;;;;;;7.25;3.33;;;;;;;4.15;83.64;102195.22;5046388;28;20287;-87
2023/05/24 00:42:48;;;;;;;;;;;;;;;4.07;83.91;102191.31;5036241;28;20042;-88
2023/05/24 00:45:13;;;;;;;6.88;2.92;;;;;;;4.03;84.34;102186.34;5040401;28;19982;-88
2023/05/24 00:47:39;;;;;;;7.55;2.45;;;;;;;4.01;84.56;102182.97;5044731;28;20032;-87
2023/05/24 00:50:06;;;;;;;14.15;3.30;;;;;;;4.05;84.64;102173.78;5031487;28;20032;-87
2023/05/24 00:52:31;;;;;;;10.93;2.90;;;;;;;4.03;84.82;102176.56;5018677;28;20041;-88
2023/05/24 00:54:57;;;;;;;11.82;3.55;;;;;;;4.05;85.25;102163.97;5004838;28;20022;-88
2023/05/24 00:57:22;;;;;;;8.13;2.70;;;;;;;4.07;85.03;102171.84;5020569;28;20696;-88
2023/05/24 00:59:48;;;;;;;12.90;3.38;;;;;;;4.07;85.47;102167.34;5035108;28;20694;-87
2023/05/24 01:02:13;;;;;;;11.93;3.53;;;;;;;4.06;85.02;102160.31;5005248;28;20021;-88
2023/05/24 01:04:38;;;;;;;10.88;3.42;;;;;;;3.96;85.82;102162.03;5026378;28;20026;-88
2023/05/24 01:07:25;;;;;;;8.53;2.70;;;;;;;3.90;85.49;102171.34;5030220;28;20048;-86
2023/05/24 01:10:12;;;;;;;9.63;3.63;;;;;;;3.79;86.17;102164.19;5006901;28;20040;-87
2023/05/24 01:13:01;;;;;;;13.63;3.30;;;;;;;3.73;86.18;102163.81;5031526;28;20045;-87
2023/05/24 01:15:41;;;;;;;7.60;2.63;;;;;;;3.73;85.25;102159.34;5035378;28;20033;-87
2023/05/24 01:18:11;;;;;;;8.85;3.20;;;;;;;3.75;85.97;102157.41;5013140;28;20037;-86
2023/05/24 01:20:37;;;;;;;16.48;4.13;;;;;;;3.84;86.72;102170.97;5017248;28;20037;-87
2023/05/24 01:23:31;;;;;;;9.60;3.35;;;;;;;3.81;87.00;102164.06;5003751;28;20037;-86
2023/05/24 01:26:17;;;;;;;10.93;3.30;;;;;;;3.78;87.46;102167.81;5002500;28;20036;-86
2023/05/24 01:28:43;;;;;;;12.07;3.53;;;;;;;3.79;87.41;102169.53;5383807;22;20563;-87
2023/05/24 01:31:09;;;;;;;7.68;3.20;;;;;;;3.75;88.01;102164.56;4993291;28;20042;-87
2023/05/24 01:33:34;;;;;;;9.90;3.42;;;;;;;3.70;87.96;102172.91;4992772;28;20047;-87
2023/05/24 01:36:00;;;;;;;10.37;3.37;;;;;;;3.66;87.65;102163.47;4998378;28;20029;-86
2023/05/24 01:38:25;;;;;;;9.40;3.07;;;;;;;3.60;87.72;102174.56;5013135;28;20350;-87
2023/05/24 01:40:56;;;;;;;8.07;2.70;;;;;;;3.54;87.53;102173.25;5011220;28;20517;-87
2023/05/24 01:43:32;;;;;;;8.25;3.53;;;;;;;3.47;87.44;102175.53;4977555;28;20030;-85
2023/05/24 01:46:31;;;;;;;10.52;3.20;;;;;;;3.46;87.95;102176.50;5007557;28;20564;-85
2023/05/24 01:49:19;;;;;;;11.98;4.22;;;;;;;3.43;87.85;102167.91;4977664;28;20069;-85
2023/05/24 01:52:07;;;;;;;15.60;4.22;;;;;;;3.46;88.67;102170.31;4985333;28;20030;-86
2023/05/24 01:54:33;;;;;;;10.68;3.58;;;;;;;3.41;88.42;102170.66;4989830;28;20030;-86
2023/05/24 01:56:58;;;;;;;9.52;3.22;;;;;;;3.39;88.61;102167.25;4987204;28;20156;-86
2023/05/24 01:59:24;;;;;;;7.20;3.00;;;;;;;3.32;88.62;102166.88;4989655;28;20180;-86
2023/05/24 02:01:50;;;;;;;9.00;3.15;;;;;;;3.35;88.42;102171.16;4973849;28;20351;-86
2023/05/24 02:04:34;;;;;;;10.80;3.67;;;;;;;3.37;88.46;102168.34;4992409;28;20490;-87
2023/05/24 02:06:59;;;;;;;12.93;3.60;;;;;;;3.36;89.03;102164.81;4980287;28;20082;-86
2023/05/24 02:09:25;;;;;;;10.20;3.30;;;;;;;3.31;89.16;102167.84;5014275;28;20117;-85
2023/05/24 02:11:50;;;;;;;14.50;3.90;;;;;;;3.26;88.92;102164.72;5365629;22;20055;-87
2023/05/24 02:14:18;;;;;;;9.70;3.40;;;;;;;3.23;88.33;102167.59;5024429;28;20025;-85
2023/05/24 02:16:45;;;;;;;12.38;3.65;;;;;;;3.25;89.22;102164.81;5044022;28;20287;-86
2023/05/24 02:19:13;;;;;;;14.02;4.07;;;;;;;3.28;88.97;102164.56;5050174;28;20024;-85
2023/05/24 02:21:40;;;;;;;15.60;4.93;;;;;;;3.30;89.33;102170.63;5040160;28;20029;-86
2023/05/24 02:24:11;;;;;;;12.07;4.00;;;;;;;3.32;89.81;102174.03;5048018;28;20132;-87
2023/05/24 02:26:37;;;;;;;9.57;3.45;;;;;;;3.28;89.54;102169.91;5051106;28;20028;-87
2023/05/24 02:29:04;;;;;;;13.45;4.13;;;;;;;3.30;90.15;102165.31;5047884;28;20028;-85
2023/05/24 02:31:29;;;;;;;13.38;3.72;;;;;;;3.29;89.57;102166.28;5333952;22;20065;-85
2023/05/24 02:33:56;;;;;;;10.98;4.13;;;;;;;3.28;89.67;102164.56;5029892;28;20042;-85
2023/05/24 02:42:47;;;;;;;9.52;3.40;;;;;;;3.29;89.92;102168.94;5035102;28;20041;-86
2023/05/24 02:45:12;;;;;;;12.25;4.15;;;;;;;3.25;89.72;102163.00;5029416;28;20381;-88
2023/05/24 02:47:38;;;;;;;11.87;4.23;;;;;;;3.25;90.14;102164.81;5027578;28;20029;-84
2023/05/24 02:50:03;;;;;;;10.47;3.60;;;;;;;3.22;89.84;102163.22;5029079;28;20292;-85
2023/05/24 02:52:29;;;;;;;16.13;4.40;;;;;;;3.26;90.68;102161.19;5024590;28;20586;-86
2023/05/24 02:54:55;;;;;;;;;;;;;;;3.24;90.21;102163.09;5029411;28;20026;-86
2023/05/24 02:57:20;;;;;;;9.63;3.70;;;;;;;3.17;90.49;102168.91;5007759;28;20019;-86
2023/05/24 02:59:48;;;;;;;11.65;3.53;;;;;;;3.12;90.62;102168.41;5024654;28;20826;-86
2023/05/24 03:02:14;;;;;;;13.00;3.83;;;;;;;3.12;90.23;102160.41;5029158;28;20037;-86
2023/05/24 03:04:39;;;;;;;15.20;5.13;;;;;;;3.12;90.32;102146.25;5031288;28;20029;-86
2023/05/24 03:07:05;;;;;;;13.90;4.10;;;;;;;3.16;90.66;102150.38;5045083;28;20040;-86
2023/05/24 03:09:30;;;;;;;15.30;4.60;;;;;;;3.27;90.73;102152.22;5035299;28;20280;-86
2023/05/24 03:11:58;;;;;;;11.23;4.25;;;;;;;3.38;90.75;102144.25;5032515;28;20416;-86
2023/05/24 03:14:23;;;;;;;15.90;4.50;;;;;;;3.30;90.59;102142.19;5024836;28;20030;-85
2023/05/24 03:16:49;;;;;;;14.20;4.57;;;;;;;3.25;90.51;102151.50;5028316;28;20045;-86
2023/05/24 03:19:16;;;;;;;11.10;4.15;;;;;;;3.18;90.66;102154.63;5026596;28;20105;-87
2023/05/24 03:21:42;;;;;;;10.40;3.75;;;;;;;3.13;90.52;102145.28;5027507;28;20125;-86
2023/05/24 03:24:11;;;;;;;9.70;4.43;;;;;;;3.10;90.84;102142.84;5028124;28;20483;-87
2023/05/24 03:26:38;;;;;;;12.57;4.07;;;;;;;3.13;90.98;102151.47;5023867;28;20056;-86
2023/05/24 03:29:03;;;;;;;16.17;4.97;;;;;;;3.16;90.99;102145.06;5027543;28;20018;-86
2023/05/24 03:31:29;;;;;;;12.63;4.63;;;;;;;3.14;90.87;102142.53;5028957;28;20492;-86
2023/05/24 03:33:54;;;;;;;17.43;5.07;;;;;;;3.16;90.96;102140.59;5033545;28;20295;-86
2023/05/24 03:36:20;;;;;;;14.52;4.78;;;;;;;3.25;91.01;102144.38;5028759;28;20032;-86
2023/05/24 03:38:45;;;;;;;16.65;5.22;;;;;;;3.38;91.12;102149.59;5032623;28;20037;-86
2023/05/24 03:41:11;;;;;;;17.30;4.70;;;;;;;3.30;91.77;102152.84;5033603;28;20032;-86
2023/05/24 03:43:39;;;;;;;17.35;4.45;;;;;;;3.30;91.81;102154.66;5034405;28;20029;-86
2023/05/24 03:46:04;;;;;;;14.10;4.40;;;;;;;3.30;91.69;102162.66;5035984;28;20030;-86
2023/05/24 03:48:30;;;;;;;13.68;4.35;;;;;;;3.35;91.31;102157.84;5030513;28;20426;-85
2023/05/24 03:50:55;;;;;;;;;;;;;;;3.37;91.67;102160.38;5033377;28;20040;-86
2023/05/24 03:53:21;;;;;;;15.60;4.90;;;;;;;3.37;91.95;102163.88;5034947;28;19920;-86
2023/05/24 03:55:46;;;;;;;11.60;5.20;;;;;;;3.43;92.05;102166.06;5032614;28;20767;-86
2023/05/24 03:58:12;;;;;;;16.88;5.15;;;;;;;3.53;91.32;102162.72;5042001;28;20106;-87
2023/05/24 04:03:28;;;;;;;15.57;5.05;;;;;;;3.67;91.57;102157.16;4995617;28;20026;-86
2023/05/24 04:05:56;;;;;;;18.13;5.27;;;;;;;3.74;92.04;102158.38;5024245;28;20030;-82
2023/05/24 04:08:22;;;;;;;18.42;5.03;;;;;;;3.79;91.45;102166.03;5019322;28;20371;-82
2023/05/24 04:10:47;;;;;;;19.42;5.03;;;;;;;3.87;92.11;102165.41;5029902;28;20029;-83
2023/05/24 04:13:13;;;;;;;10.18;4.18;;;;;;;3.92;91.69;102164.09;5026553;28;20499;-82
2023/05/24 04:15:38;;;;;;;16.57;5.00;;;;;;;4.01;91.94;102165.19;5030624;28;20033;-84
2023/05/24 04:18:04;;;;;;;16.75;4.72;;;;;;;4.10;91.14;102167.09;5029582;28;20017;-84
2023/05/24 04:20:30;;;;;;;18.77;5.32;;;;;;;4.21;90.89;102173.41;5027447;28;20029;-83
2023/05/24 04:22:56;;;;;;;15.52;4.55;;;;;;;4.33;90.62;102180.41;5020736;28;20064;-81
2023/05/24 04:25:21;;;;;;;14.05;4.93;;;;;;;4.42;90.53;102177.97;5026094;28;20063;-84
2023/05/24 04:27:49;;;;;;;17.33;4.88;;;;;;;4.61;90.29;102172.00;5029773;28;20618;-83
2023/05/24 04:30:15;;;;;;;13.25;4.78;;;;;;;4.88;90.66;102173.38;5029197;28;20093;-84
2023/05/24 04:32:43;;;;;;;13.75;4.85;;;;;;;5.05;89.44;102177.31;5030463;28;20025;-84
2023/05/24 04:35:10;;;;;;;15.85;4.50;;;;;;;5.19;89.04;102179.69;5030169;28;20468;-84
2023/05/24 04:37:35;;;;;;;17.40;4.90;;;;;;;5.32;87.84;102171.50;5028971;28;20684;-84
2023/05/24 04:40:03;;;;;;;;;;;;;;;5.49;87.08;102175.41;5031583;28;20029;-84
2023/05/24 04:42:31;;;;;;;12.30;4.72;;;;;;;5.56;85.97;102176.56;5030441;28;20007;-84
2023/05/24 04:44:57;;;;;;;13.23;4.63;;;;;;;5.66;85.21;102181.13;5024640;28;20026;-84
2023/05/24 04:47:22;;;;;;;;;;;;;;;5.78;84.96;102180.09;5027114;28;20021;-85
2023/05/24 04:49:53;;;;;;;12.35;4.20;;;;;;;5.84;84.62;102178.69;5023496;28;19988;-85
2023/05/24 04:52:21;;;;;;;16.55;4.25;;;;;;;5.92;84.25;102179.72;5030791;28;20029;-85
2023/05/24 05:01:11;;;;;;;13.30;4.30;;;;;;;6.34;83.11;102177.97;5036848;22;20060;-88
2023/05/24 05:03:37;;;;;;;;;;;;;;;6.63;82.22;102180.69;5004462;28;20025;-87
2023/05/24 05:06:02;;;;;;;11.48;4.22;;;;;;;7.39;81.45;102170.28;5036625;22;19925;-85
2023/05/24 05:11:31;;;;;;;15.27;4.45;;;;;;;8.94;74.74;102185.88;5054288;22;20402;-87
2023/05/24 05:14:11;;;;;;;;;;;;;;;9.51;71.82;102175.75;5049949;28;20476;-86
2023/05/24 05:16:37;;;;;;;10.77;3.90;;;;;;;9.63;70.90;102184.41;5051464;28;19917;-88
2023/05/24 05:19:05;;;;;;;15.25;4.75;;;;;;;9.95;69.73;102166.75;5050332;28;20078;-88
2023/05/24 05:21:40;;;;;;;12.65;4.40;;;;;;;10.48;68.26;102181.00;5044216;28;20540;-87
2023/05/24 05:26:40;;;;;;;12.38;4.18;;;;;;;10.92;66.31;102182.59;5463505;22;20053;-88
2023/05/24 05:29:07;;;;;;;15.70;4.55;;;;;;;11.25;64.73;102177.22;5011011;28;20030;-88
2023/05/24 05:31:32;;;;;;;14.48;4.85;;;;;;;11.50;65.25;102182.59;5027101;28;20063;-88
2023/05/24 05:34:00;;;;;;;19.95;5.28;;;;;;;11.59;63.57;102172.63;5021049;28;20021;-86
2023/05/24 05:36:29;;;;;;;14.35;4.85;;;;;;;11.25;65.24;102170.97;5021960;28;20022;-86
2023/05/24 05:38:54;;;;;;;13.85;5.25;;;;;;;11.17;65.87;102174.50;5007573;28;20497;-87
2023/05/24 05:41:21;;;;;;;13.57;5.15;;;;;;;11.65;65.33;102175.47;5393536;22;20044;-88
2023/05/24 05:43:49;;;;;;;18.77;5.07;;;;;;;11.94;63.66;102168.69;5054440;28;20120;-87
2023/05/24 05:46:14;;;;;;;17.73;5.38;;;;;;;12.36;62.53;102176.63;5045114;28;20051;-87
2023/05/24 05:48:43;;;;;;;16.02;4.55;;;;;;;12.79;61.06;102182.47;5048245;28;20021;-87
2023/05/24 05:51:08;;;;;;;15.82;4.50;;;;;;;12.57;61.24;102187.66;5049726;28;20588;-88
2023/05/24 05:56:07;;;;;;;19.38;4.65;;;;;;;11.25;65.53;102197.94;5020254;28;20050;-86
2023/05/24 05:58:34;;;;;;;15.00;4.38;;;;;;;10.75;67.64;102209.50;5025279;28;20029;-84
2023/05/24 06:04:36;;;;;;;12.75;5.00;;;;;;;10.52;69.43;102209.25;5028504;28;20096;-88
2023/05/24 06:11:04;;;;;;;16.70;4.40;;;;;;;12.49;63.60;102212.03;5018760;28;20129;-88
2023/05/24 06:13:35;;;;;;;15.45;4.65;;;;;;;13.01;61.83;102204.28;5024868;28;20033;-87
2023/05/24 06:16:07;;;;;;;14.25;4.20;;;;;;;13.78;61.61;102206.00;5029162;28;20026;-88
2023/05/24 06:19:00;;;;;;;18.60;4.70;;;;;;;14.63;57.40;102205.69;5022189;28;20033;-86
2023/05/24 06:21:26;;;;;;;16.45;3.55;;;;;;;16.03;53.44;102218.84;5016658;28;20116;-84
2023/05/24 06:26:51;;;;;;;13.10;3.90;;;;;;;17.63;48.77;102219.50;5348852;23;20064;-87
2023/05/24 06:29:20;;;;;;;12.68;3.78;;;;;;;18.08;47.13;102229.72;5010556;28;20034;-84
2023/05/24 06:31:49;;;;;;;11.02;3.53;;;;;;;18.70;46.32;102217.53;5024742;28;20026;-88
2023/05/24 06:34:19;;;;;;;16.80;4.50;;;;;;;17.17;47.04;102228.47;5021900;28;20429;-87
2023/05/24 06:36:47;;;;;;;20.25;4.50;;;;;;;16.75;48.70;102215.81;5024247;28;20033;-87
2023/05/24 06:39:13;;;;;;;16.25;3.95;;;;;;;16.20;50.50;102219.38;5019507;28;20375;-86
2023/05/24 06:41:38;;;;;;;19.55;4.07;;;;;;;15.46;52.22;102213.41;5012965;28;20030;-88
2023/05/24 06:44:04;;;;;;;16.88;4.13;;;;;;;14.83;53.35;102215.91;5029111;28;20022;-87
2023/05/24 06:46:30;;;;;;;17.50;3.78;;;;;;;14.25;55.18;102219.38;5029369;28;20029;-87
2023/05/24 06:48:55;;;;;;;15.05;4.05;;;;;;;14.12;55.29;102211.09;5017614;28;20113;-87
2023/05/24 06:51:20;;;;;;;13.48;4.22;;;;;;;14.46;54.98;102221.31;5032802;28;20116;-89
2023/05/24 06:53:46;;;;;;;13.15;3.45;;;;;;;15.73;52.06;102226.34;5028435;28;20044;-89
2023/05/24 06:56:11;;;;;;;13.80;3.67;;;;;;;16.51;49.55;102219.91;5030535;28;20072;-88
2023/05/24 06:58:37;;;;;;;13.15;4.00;;;;;;;17.41;47.76;102224.31;5021909;28;20060;-88
2023/05/24 07:01:03;;;;;;;14.60;4.15;;;;;;;18.19;45.58;102211.84;5025761;28;20048;-88
2023/05/24 07:03:31;;;;;;;12.63;3.83;;;;;;;18.44;44.49;102219.31;5023242;28;20029;-89
2023/05/24 07:05:57;;;;;;;12.73;4.03;;;;;;;17.96;45.13;102224.06;5018233;28;20057;-88
2023/05/24 07:08:23;;;;;;;13.40;3.78;;;;;;;18.73;43.54;102204.28;5025628;28;20021;-94
2023/05/24 07:10:49;;;;;;;11.80;3.58;;;;;;;19.82;41.47;102216.88;5019984;28;20048;-86
2023/05/24 07:13:14;;;;;;;14.23;4.22;;;;;;;18.90;42.60;102209.22;5019844;28;20465;-91
2023/05/24 07:15:43;;;;;;;15.68;3.90;;;;;;;19.96;41.22;102214.03;5017032;28;20033;-90
2023/05/24 07:18:17;;;;;;;14.13;3.90;;;;;;;19.79;41.35;102217.31;5038036;23;20034;-91
2023/05/24 07:20:43;;;;;;;11.15;3.72;;;;;;;20.23;39.77;102216.47;5024903;28;20042;-90
2023/05/24 07:23:17;;;;;;;10.95;3.72;;;;;;;21.47;37.79;102222.50;5030472;28;20051;-91
2023/05/24 07:25:43;;;;;;;13.57;3.47;;;;;;;21.84;36.05;102219.56;5024433;28;20026;-90
2023/05/24 07:28:09;;;;;;;12.57;3.45;;;;;;;21.34;36.34;102227.16;5257560;22;20086;-90
2023/05/24 07:30:34;;;;;;;14.70;3.72;;;;;;;19.88;39.39;102222.53;5072920;28;20064;-87
2023/05/24 07:33:00;;;;;;;15.30;3.90;;;;;;;20.02;39.55;102221.34;5064869;28;20033;-89
2023/05/24 07:35:27;;;;;;;13.07;3.42;;;;;;;18.86;39.87;102225.19;5070110;28;20040;-85
2023/05/24 07:37:52;;;;;;;11.63;3.47;;;;;;;18.72;41.04;102231.75;5066401;28;20025;-81
2023/05/24 07:40:18;;;;;;;12.95;3.80;;;;;;;17.96;41.73;102237.69;5067852;28;20034;-81
2023/05/24 07:42:43;;;;;;;11.10;3.50;;;;;;;17.71;41.90;102223.88;5067139;28;20085;-82
2023/05/24 07:45:10;;;;;;;13.07;3.33;;;;;;;18.13;41.11;102232.63;5059046;28;20027;-81
2023/05/24 07:47:36;;;;;;;10.57;3.10;;;;;;;18.91;40.45;102227.25;5065897;28;20031;-80
2023/05/24 07:50:02;;;;;;;10.55;3.05;;;;;;;19.23;39.48;102225.41;5061106;28;20036;-81
2023/05/24 07:52:28;;;;;;;13.43;3.78;;;;;;;19.63;38.50;102224.22;5059486;28;20032;-82
2023/05/24 07:54:56;;;;;;;10.82;3.20;;;;;;;20.23;37.47;102232.88;5057267;28;20086;-82
2023/05/24 07:57:22;;;;;;;10.35;3.22;;;;;;;20.12;37.00;102220.81;5066836;28;20025;-82
2023/05/24 07:59:47;;;;;;;11.25;3.50;;;;;;;19.97;37.58;102230.22;5061379;28;20025;-82
2023/05/24 08:02:16;;;;;;;11.70;3.55;;;;;;;21.16;35.94;102229.97;5065511;28;20025;-82
2023/05/24 08:04:42;;;;;;;10.68;3.30;;;;;;;21.24;35.53;102231.53;5066406;28;20024;-82
2023/05/24 08:07:08;;;;;;;10.27;3.30;;;;;;;20.69;35.93;102225.97;5063917;28;20037;-80
2023/05/24 08:09:35;;;;;;;9.75;3.45;;;;;;;20.39;36.85;102220.47;5067891;28;20040;-84
2023/05/24 08:12:01;;;;;;;12.13;3.25;;;;;;;20.47;36.39;102227.56;5063278;28;20036;-81
2023/05/24 08:14:26;;;;;;;9.13;3.60;;;;;;;20.33;36.28;102214.03;5060111;28;20098;-82
2023/05/24 08:16:54;;;;;;;11.90;3.33;;;;;;;19.77;37.90;102215.88;5068045;28;20507;-81
2023/05/24 08:19:20;;;;;;;10.00;3.22;;;;;;;19.36;38.75;102207.22;5066664;28;20033;-81
2023/05/24 08:21:46;;;;;;;11.70;3.78;;;;;;;18.46;40.98;102217.22;5070374;28;20035;-81
2023/05/24 08:24:11;;;;;;;10.55;3.35;;;;;;;18.72;40.54;102208.06;5071735;28;20025;-81
2023/05/24 08:26:37;;;;;;;10.27;3.13;;;;;;;19.60;38.98;102204.69;5064312;28;20040;-81
2023/05/24 08:29:03;;;;;;;9.43;3.20;;;;;;;19.69;37.59;102201.44;5065386;28;20048;-81
2023/05/24 08:31:29;;;;;;;10.73;3.30;;;;;;;21.15;35.09;102204.47;5071819;28;20032;-81
2023/05/24 08:33:56;;;;;;;11.07;3.08;;;;;;;22.02;32.99;102198.56;5070912;28;20464;-81
2023/05/24 08:36:31;;;;;;;7.70;3.00;;;;;;;22.78;32.74;102200.34;5069770;28;20434;-81
2023/05/24 08:38:58;;;;;;;10.48;3.22;;;;;;;23.60;31.76;102211.91;5072040;28;20447;-81
2023/05/24 08:41:23;;;;;;;9.85;3.20;;;;;;;22.82;32.31;102205.09;5069565;28;20094;-81
2023/05/24 08:43:49;;;;;;;10.38;3.30;;;;;;;22.65;32.49;102204.22;5035277;28;20044;-81
2023/05/24 08:46:16;;;;;;;8.27;3.50;;;;;;;23.42;31.96;102205.59;5054042;28;20062;-82
2023/05/24 08:48:45;;;;;;;9.45;3.10;;;;;;;23.19;31.72;102200.22;5062278;28;20094;-81
2023/05/24 08:51:12;;;;;;;9.48;3.30;;;;;;;21.80;33.80;102207.41;5059527;28;20037;-81
2023/05/24 08:53:38;;;;;;;9.48;3.05;;;;;;;22.75;31.51;102212.66;5067030;28;20052;-81
2023/05/24 08:56:03;;;;;;;7.43;3.08;;;;;;;24.05;30.06;102216.38;5048147;28;20036;-82
2023/05/24 08:58:29;;;;;;;8.93;3.38;;;;;;;23.38;30.46;102215.41;5062503;28;20499;-82
2023/05/24 09:00:55;;;;;;;10.38;3.22;;;;;;;21.82;33.41;102210.75;5064538;28;20847;-81
2023/05/24 09:03:20;;;;;;;9.77;3.30;;;;;;;20.86;34.26;102208.94;5050191;28;20073;-82
2023/05/24 09:05:46;;;;;;;9.00;2.95;;;;;;;20.44;34.66;102212.41;5062165;28;20055;-81
2023/05/24 09:08:12;;;;;;;7.38;2.92;;;;;;;19.81;36.39;102212.47;5028558;28;20021;-81
2023/05/24 09:10:37;;;;;;;11.57;3.53;;;;;;;19.63;37.13;102206.97;5039548;28;20060;-80
2023/05/24 09:13:03;;;;;;;8.65;2.85;;;;;;;19.49;36.68;102201.66;5051384;28;20024;-82
2023/05/24 09:15:28;;;;;;;9.55;3.10;;;;;;;19.59;36.14;102203.88;5052674;28;20353;-81
2023/05/24 09:17:53;;;;;;;9.85;2.90;;;;;;;19.69;36.70;102214.28;5064374;28;20510;-82
2023/05/24 09:20:20;;;;;;;11.10;3.25;;;;;;;19.70;36.38;102214.03;5067238;28;20476;-82
2023/05/24 09:22:49;;;;;;;10.00;3.40;;;;;;;19.17;37.64;102204.44;5071329;28;20024;-82
2023/05/24 09:25:14;;;;;;;8.27;3.40;;;;;;;19.43;37.14;102202.53;5051383;28;20093;-82
2023/05/24 09:27:40;;;;;;;9.93;2.90;;;;;;;19.59;37.08;102211.25;5052595;28;20055;-82
2023/05/24 09:30:09;;;;;;;7.18;3.10;;;;;;;19.83;36.47;102210.34;5069092;28;20494;-84
2023/05/24 09:32:34;;;;;;;6.55;2.88;;;;;;;19.85;36.36;102215.59;5068408;28;20545;-84
2023/05/24 09:35:00;;;;;;;9.13;3.38;;;;;;;19.45;37.21;102214.06;5066840;28;20032;-85
2023/05/24 09:37:28;;;;;;;9.38;3.17;;;;;;;18.65;38.91;102220.88;5071329;28;20031;-85
2023/05/24 09:39:54;;;;;;;11.40;3.50;;;;;;;18.51;39.00;102211.94;5066597;28;20020;-85
2023/05/24 09:42:25;;;;;;;12.32;3.47;;;;;;;18.13;40.10;102212.72;5070745;28;20489;-81
2023/05/24 09:45:05;;;;;;;6.40;3.03;;;;;;;18.39;38.36;102213.66;5054562;28;20543;-83
2023/05/24 09:47:35;;;;;;;9.88;3.10;;;;;;;18.48;38.59;102206.94;5053495;28;20017;-83
2023/05/24 09:50:01;;;;;;;10.02;3.20;;;;;;;18.20;39.75;102218.16;5067946;28;20017;-83
2023/05/24 09:52:29;;;;;;;10.85;3.83;;;;;;;17.80;41.17;102210.88;5068983;28;20124;-82
2023/05/24 09:54:55;;;;;;;9.63;3.47;;;;;;;17.87;40.75;102206.25;5064097;28;20028;-81
2023/05/24 09:57:23;;;;;;;8.52;2.78;;;;;;;19.34;38.74;102195.69;5066685;28;20040;-82
2023/05/24 09:59:49;;;;;;;8.85;3.28;;;;;;;21.43;34.93;102199.41;5065212;28;20422;-82
2023/05/24 10:02:15;;;;;;;7.75;2.88;;;;;;;21.85;33.31;102191.09;5048107;28;20032;-82
2023/05/24 10:04:40;;;;;;;9.82;3.08;;;;;;;21.96;32.87;102192.97;5060006;28;20024;-82
2023/05/24 10:07:06;;;;;;;9.00;3.38;;;;;;;22.40;31.45;102197.16;5062811;28;20053;-81
2023/05/24 10:09:34;;;;;;;9.20;3.30;;;;;;;22.90;32.17;102197.53;5065349;28;20024;-81
2023/05/24 10:12:04;;;;;;;8.43;3.45;;;;;;;23.05;31.71;102194.22;5065897;28;20640;-81
2023/05/24 10:14:36;;;;;;;8.27;3.10;;;;;;;22.92;31.84;102195.38;5063992;28;20020;-81
2023/05/24 10:17:04;;;;;;;8.65;2.95;;;;;;;22.20;32.27;102198.41;5061131;28;20115;-82
2023/05/24 10:19:33;;;;;;;9.15;3.63;;;;;;;21.36;33.17;102189.38;5066876;28;20449;-85
2023/05/24 10:21:58;;;;;;;10.48;3.33;;;;;;;20.95;33.18;102199.31;5049037;28;20377;-84
2023/05/24 10:24:25;;;;;;;12.32;3.50;;;;;;;20.05;35.43;102193.53;5071728;28;20024;-82
2023/05/24 10:26:51;;;;;;;10.43;3.28;;;;;;;19.69;36.02;102189.69;5047674;28;20434;-82
2023/05/24 10:29:26;;;;;;;10.50;3.50;;;;;;;19.13;38.05;102186.81;5050935;28;20036;-82
2023/05/24 10:31:51;;;;;;;7.93;3.22;;;;;;;19.13;36.04;102197.75;5039944;28;20064;-82
2023/05/24 10:34:17;;;;;;;8.57;3.15;;;;;;;18.43;37.32;102204.00;5037130;28;20032;-81
2023/05/24 10:36:45;;;;;;;11.05;3.15;;;;;;;17.89;39.18;102204.16;5035525;28;20098;-82
2023/05/24 10:39:11;;;;;;;6.50;3.25;;;;;;;17.64;39.22;102199.38;5035766;28;20024;-82
2023/05/24 10:41:40;;;;;;;10.68;3.53;;;;;;;17.09;40.30;102202.31;5068929;28;20037;-82
2023/05/24 10:44:13;;;;;;;8.38;3.47;;;;;;;17.26;40.79;102198.13;5054010;28;20032;-82
2023/05/24 10:47:15;;;;;;;5.90;2.85;;;;;;;17.43;40.44;102200.44;5048061;28;20368;-82
2023/05/24 10:49:50;;;;;;;9.57;3.28;;;;;;;17.81;40.35;102202.50;5064847;28;20468;-82
2023/05/24 10:52:15;;;;;;;10.10;3.25;;;;;;;18.13;39.14;102199.09;5062133;28;20035;-81
2023/05/24 10:54:40;;;;;;;8.05;3.10;;;;;;;18.79;37.95;102197.94;5068393;28;20438;-81
2023/05/24 10:57:06;;;;;;;9.60;3.10;;;;;;;18.79;37.50;102199.81;5032917;28;20052;-82
2023/05/24 10:59:40;;;;;;;8.63;3.13;;;;;;;18.33;39.11;102199.00;5067626;28;20024;-82
2023/05/24 11:02:12;;;;;;;6.97;3.22;;;;;;;18.14;39.77;102198.88;5060023;28;20055;-82
2023/05/24 11:04:39;;;;;;;12.43;3.50;;;;;;;17.52;41.17;102199.19;5068091;28;20032;-81
2023/05/24 11:07:04;;;;;;;8.25;3.30;;;;;;;17.32;41.68;102199.16;5060054;28;20304;-82
2023/05/24 11:09:31;;;;;;;11.77;3.50;;;;;;;16.78;42.93;102201.78;5067248;28;20178;-82
2023/05/24 11:12:02;;;;;;;12.05;3.88;;;;;;;16.77;43.34;102202.00;5066960;28;20016;-82
2023/05/24 11:14:29;;;;;;;10.38;3.30;;;;;;;16.15;44.83;102204.72;5060592;28;20055;-82
2023/05/24 11:16:57;;;;;;;11.77;4.00;;;;;;;15.99;44.94;102200.44;5058850;28;20530;-82
2023/05/24 11:19:27;;;;;;;14.05;3.53;;;;;;;15.90;45.67;102197.88;5059564;28;20399;-82
2023/05/24 11:21:53;;;;;;;8.48;3.58;;;;;;;15.80;45.87;102205.50;5068232;28;20025;-82
2023/05/24 11:24:19;;;;;;;13.07;3.55;;;;;;;15.65;46.40;102208.31;5032370;28;20040;-82
2023/05/24 11:26:45;;;;;;;9.23;3.08;;;;;;;15.60;46.60;102214.34;5066801;28;20516;-82
2023/05/24 11:29:16;;;;;;;10.43;3.65;;;;;;;15.67;46.55;102205.44;5066259;28;20048;-82
2023/05/24 11:31:49;;;;;;;12.10;3.38;;;;;;;15.61;46.17;102199.75;5056166;28;20041;-82
2023/05/24 11:34:16;;;;;;;9.73;3.40;;;;;;;15.96;46.22;102200.84;5059359;28;20025;-83
2023/05/24 11:36:41;;;;;;;11.98;3.63;;;;;;;16.01;45.28;102203.78;5068171;28;20077;-82
2023/05/24 11:39:08;;;;;;;9.10;3.55;;;;;;;16.12;44.67;102207.81;5047891;28;20028;-82
2023/05/24 11:41:46;;;;;;;8.77;3.20;;;;;;;16.01;44.38;102203.78;5065963;28;20040;-82
2023/05/24 11:44:11;;;;;;;7.40;3.50;;;;;;;15.83;44.90;102193.41;5060008;28;20100;-82
2023/05/24 11:46:40;;;;;;;11.60;3.47;;;;;;;15.95;44.77;102207.31;5027363;28;20037;-82
2023/05/24 11:49:05;;;;;;;11.27;3.45;;;;;;;16.25;44.62;102201.59;5046622;28;20036;-82
2023/05/24 11:51:34;;;;;;;11.68;3.72;;;;;;;16.52;43.93;102207.97;5068031;28;20043;-82
2023/05/24 11:53:59;;;;;;;9.68;3.53;;;;;;;16.91;43.23;102205.59;5069484;28;20032;-82
2023/05/24 11:56:26;;;;;;;7.28;3.45;;;;;;;17.22;43.04;102201.50;5070732;28;20110;-82
2023/05/24 11:58:56;;;;;;;9.27;3.33;;;;;;;17.01;41.53;102200.63;5072446;28;20110;-82
2023/05/24 12:01:25;;;;;;;8.15;3.25;;;;;;;17.40;41.15;102195.41;5072730;28;20459;-82